Arminto, WY

9:48 AM MDT on October 24, 2014 (GMT -0600)
Natrona County International | Change Station
CLOSE
Current Station
Airport
Location: Casper,
Elevation: 5289 ft
Nearby Weather Stations

Elev 5289 ft 42.90 °N, 106.47 °W | Updated 55 minutes ago

Clear
Clear
56 °F
Feels Like 56 °F
N
17
Wind Variable Wind from SW
Gusts 24 mph

Today
High -- | Low -- °F
--% Chance of Precip.
Yesterday
High -- | Low -- °F
Precip. -- in
7:34 AM 6:12 PM
New Moon, 1% visible
Pressure 30.02 in
Visibility 10.0 miles
Clouds Clear
Dew Point 31 °F
Humidity 39%
Rainfall 0.00 in
Snow Depth Not available.
UV 1 out of 12
Pollen 2.70 out of 12
Air Quality Not available.
Flu Activity Sporadic
METAR KCPR 241453Z 23015G21KT 10SM CLR 13/M01 A3012 RMK AO2 SLP164 T01331006 53014

More Conditions Fewer Conditions

Pressure 30.02 in
Visibility 10.0 miles
Clouds Clear
Dew Point 31 °F
Humidity 39%
Rainfall 0.00 in
Snow Depth Not available.
UV 1 out of 12
Pollen 2.70 out of 12
Air Quality Not available.
Flu Activity Sporadic
METAR KCPR 241453Z 23015G21KT 10SM CLR 13/M01 A3012 RMK AO2 SLP164 T01331006 53014

More Conditions Fewer Conditions

10-Day Weather Forecast

Almanac

Astronomy

Oct. 24, 2014 Rise Set
Actual Time 7:34 AM MDT 6:12 PM MDT
Civil Twilight 7:05 AM MDT 6:41 PM MDT
Nautical Twilight 6:31 AM MDT 7:14 PM MDT
Astronomical Twilight 5:58 AM MDT 7:47 PM MDT
Moon 8:17 AM MDT 6:53 PM MDT
Length of Visible Light 11h 36m
Length of Day
10h 38m
Tomorrow will be 2m 44s shorter.
New Moon, 1% of the Moon is Illuminated
Today
New Moon
Oct 30
First Quarter
Nov 6
Full
Nov 14
Last Quarter
Nov 22
New

Today's Extremes

State Highs State Lows

Community

WunderPhotos

Upload Photos

1,764,590 photos uploaded!

WunderBlogs® & News

Nearby

Snow Depth

Station Depth Elevation
Grave Springs 0 in 8550 ft
Middle Powder 0 in 7760 ft
Bear Trap Meadow 0 in 8200 ft
Casper Mountain 0 in 7850 ft
Tie Creek 0 in 6870 ft

Earthquake Activity

City Distance Mag. Time & Date
No recent earthquake activity has been reported nearby.
Minimum magnitude displayed is 2.5.

Coastal Water Temperatures

Place Temperature
No Stations Reporting

Nearby Weather Stations